Time;durP1;ratioP1;P1;durP2;ratioP2;P2;SDS_P1;SDS_P2;PMS_P1;PMS_P2;Temp;Humidity;BMP_temperature;BMP_pressure;BME280_temperature;BME280_humidity;BME280_pressure;Samples;Min_cycle;Max_cycle;Signal;HPM_P1;HPM_P2
2022/05/22 00:01:13;;;;;;;21.10;10.80;;;;;;;;;;5058329;28;20037;-59
2022/05/22 00:03:39;;;;;;;23.23;11.30;;;;;;;;;;5060856;28;20044;-60
2022/05/22 00:06:05;;;;;;;24.37;10.90;;;;;;;;;;5058320;28;20041;-59
2022/05/22 00:08:31;;;;;;;29.23;12.90;;;;;;;;;;5059487;28;20462;-60
2022/05/22 00:10:57;;;;;;;32.50;14.60;;;;;;;;;;5059169;28;20068;-59
2022/05/22 00:13:23;;;;;;;19.60;12.03;;;;;;;;;;5058824;28;20525;-59
2022/05/22 00:18:34;;;;;;;24.63;12.40;;;;;;;;;;5060226;28;20053;-59
2022/05/22 00:21:00;;;;;;;18.67;11.37;;;;;;;;;;5059909;28;20491;-59
2022/05/22 00:23:28;;;;;;;19.90;11.30;;;;;;;;;;5059787;28;20041;-59
2022/05/22 00:25:56;;;;;;;23.40;12.03;;;;;;;;;;5059104;28;20048;-59
2022/05/22 00:28:22;;;;;;;20.77;11.33;;;;;;;;;;5057965;28;20084;-59
2022/05/22 00:30:48;;;;;;;23.17;12.33;;;;;;;;;;5058604;28;20079;-59
2022/05/22 00:33:14;;;;;;;27.00;14.80;;;;;;;;;;5058961;28;20478;-60
2022/05/22 00:35:41;;;;;;;28.30;16.33;;;;;;;;;;5060702;28;20052;-59
2022/05/22 00:38:07;;;;;;;27.77;13.83;;;;;;;;;;5059370;28;20041;-59
2022/05/22 00:40:33;;;;;;;26.60;12.80;;;;;;;;;;5056634;28;20084;-59
2022/05/22 00:42:59;;;;;;;19.87;12.90;;;;;;;;;;5061377;28;20041;-60
2022/05/22 00:45:25;;;;;;;24.97;13.20;;;;;;;;;;5059712;28;20134;-60
2022/05/22 00:47:51;;;;;;;25.50;13.60;;;;;;;;;;5058835;28;20037;-59
2022/05/22 00:50:18;;;;;;;21.63;11.17;;;;;;;;;;5058321;28;20048;-60
2022/05/22 00:52:46;;;;;;;25.30;13.17;;;;;;;;;;5059668;28;20047;-60
2022/05/22 00:55:15;;;;;;;22.70;11.23;;;;;;;;;;5057824;28;20037;-60
2022/05/22 00:57:43;;;;;;;20.10;11.60;;;;;;;;;;5058335;28;20487;-60
2022/05/22 01:00:12;;;;;;;20.47;13.03;;;;;;;;;;5059028;28;20037;-60
2022/05/22 01:05:23;;;;;;;17.13;10.90;;;;;;;;;;5058728;28;20052;-59
2022/05/22 01:07:49;;;;;;;20.27;10.53;;;;;;;;;;5059253;28;20041;-60
2022/05/22 01:10:16;;;;;;;19.53;10.63;;;;;;;;;;5057450;28;20048;-60
2022/05/22 01:12:42;;;;;;;23.50;11.53;;;;;;;;;;5059761;28;20041;-61
2022/05/22 01:15:09;;;;;;;26.00;12.10;;;;;;;;;;5058948;28;20041;-60
2022/05/22 01:17:42;;;;;;;25.13;11.97;;;;;;;;;;5057454;28;20056;-60
2022/05/22 01:20:09;;;;;;;20.52;10.80;;;;;;;;;;5059459;28;20118;-60
2022/05/22 01:22:35;;;;;;;25.63;12.07;;;;;;;;;;5057205;28;20057;-59
2022/05/22 01:25:01;;;;;;;16.90;10.07;;;;;;;;;;5060359;28;20041;-60
2022/05/22 01:27:27;;;;;;;26.00;13.27;;;;;;;;;;5058651;28;20131;-60
2022/05/22 01:30:09;;;;;;;18.73;10.80;;;;;;;;;;5059703;28;20111;-60
2022/05/22 01:32:37;;;;;;;22.93;11.20;;;;;;;;;;5054133;28;20110;-60
2022/05/22 01:35:04;;;;;;;24.07;12.17;;;;;;;;;;5056958;28;20722;-60
2022/05/22 01:37:30;;;;;;;22.97;11.37;;;;;;;;;;5058694;28;20451;-60
2022/05/22 01:39:56;;;;;;;17.93;9.33;;;;;;;;;;5058181;28;20053;-60
2022/05/22 01:42:22;;;;;;;15.23;7.63;;;;;;;;;;5056824;28;20048;-59
2022/05/22 01:44:48;;;;;;;10.20;6.10;;;;;;;;;;5056859;28;20045;-60
2022/05/22 01:47:14;;;;;;;7.67;3.93;;;;;;;;;;5056857;28;20446;-60
2022/05/22 01:49:40;;;;;;;6.03;4.33;;;;;;;;;;5054947;28;20041;-59
2022/05/22 01:52:06;;;;;;;9.53;6.20;;;;;;;;;;5058362;28;20047;-60
2022/05/22 01:54:32;;;;;;;12.07;8.60;;;;;;;;;;5057963;28;20084;-59
2022/05/22 01:56:58;;;;;;;11.47;8.40;;;;;;;;;;5056752;28;20083;-59
2022/05/22 01:59:26;;;;;;;14.50;9.43;;;;;;;;;;5059912;28;20388;-59
2022/05/22 02:01:52;;;;;;;10.97;8.23;;;;;;;;;;5059697;28;20607;-59
2022/05/22 02:04:18;;;;;;;16.80;8.30;;;;;;;;;;5055000;28;20048;-59
2022/05/22 02:09:34;;;;;;;12.00;8.63;;;;;;;;;;5043026;28;20052;-60
2022/05/22 02:12:00;;;;;;;10.50;8.40;;;;;;;;;;5056888;28;20044;-59
2022/05/22 02:14:26;;;;;;;11.83;7.30;;;;;;;;;;5059574;28;20041;-60
2022/05/22 02:16:52;;;;;;;10.67;6.93;;;;;;;;;;5055340;28;20059;-59
2022/05/22 02:19:18;;;;;;;9.30;6.77;;;;;;;;;;5058307;28;20119;-60
2022/05/22 02:21:45;;;;;;;12.27;8.90;;;;;;;;;;5058146;28;20128;-60
2022/05/22 02:24:11;;;;;;;11.10;9.70;;;;;;;;;;5057157;28;20127;-60
2022/05/22 02:26:38;;;;;;;15.90;11.70;;;;;;;;;;5058329;28;20032;-59
2022/05/22 02:29:05;;;;;;;13.50;11.27;;;;;;;;;;5057048;28;20084;-59
2022/05/22 02:31:31;;;;;;;13.43;9.90;;;;;;;;;;5059459;28;20041;-60
2022/05/22 02:33:57;;;;;;;17.33;10.00;;;;;;;;;;5058389;28;20036;-59
2022/05/22 02:36:23;;;;;;;12.97;8.47;;;;;;;;;;5058230;28;20071;-59
2022/05/22 02:38:49;;;;;;;9.70;7.13;;;;;;;;;;5057452;28;20421;-59
2022/05/22 02:41:16;;;;;;;8.80;5.00;;;;;;;;;;5058381;28;20045;-60
2022/05/22 02:43:43;;;;;;;6.07;4.63;;;;;;;;;;5055590;28;20041;-59
2022/05/22 02:46:10;;;;;;;6.63;4.10;;;;;;;;;;5056426;28;20084;-59
2022/05/22 02:48:36;;;;;;;10.60;4.13;;;;;;;;;;5057355;28;20071;-59
2022/05/22 02:51:02;;;;;;;8.83;5.87;;;;;;;;;;5055954;28;20597;-59
2022/05/22 02:53:28;;;;;;;11.30;5.23;;;;;;;;;;5058985;28;20093;-59
2022/05/22 02:55:54;;;;;;;14.37;7.00;;;;;;;;;;5056240;28;20068;-59
2022/05/22 02:58:20;;;;;;;8.97;5.63;;;;;;;;;;5048037;28;20099;-59
2022/05/22 03:00:46;;;;;;;9.60;6.60;;;;;;;;;;5048462;28;20076;-59
2022/05/22 03:03:12;;;;;;;8.30;5.70;;;;;;;;;;5046877;28;20048;-59
2022/05/22 03:08:23;;;;;;;17.33;7.17;;;;;;;;;;5048318;28;20053;-59
2022/05/22 03:10:49;;;;;;;10.73;7.63;;;;;;;;;;5046587;28;20126;-59
2022/05/22 03:13:15;;;;;;;9.13;6.43;;;;;;;;;;5047888;28;20049;-59
2022/05/22 03:15:41;;;;;;;10.10;6.50;;;;;;;;;;5047789;28;20091;-59
2022/05/22 03:18:08;;;;;;;15.60;8.60;;;;;;;;;;5063114;28;20052;-59
2022/05/22 03:20:34;;;;;;;15.20;8.50;;;;;;;;;;5061875;28;20881;-59
2022/05/22 03:23:00;;;;;;;21.63;9.63;;;;;;;;;;5048014;28;20052;-59
2022/05/22 03:25:26;;;;;;;18.40;10.27;;;;;;;;;;5050648;28;20044;-59
2022/05/22 03:27:52;;;;;;;14.93;9.27;;;;;;;;;;5054360;28;20045;-59
2022/05/22 03:30:18;;;;;;;26.60;10.50;;;;;;;;;;5060455;28;20490;-59
2022/05/22 03:32:45;;;;;;;18.10;9.97;;;;;;;;;;5064672;28;20054;-59
2022/05/22 03:35:11;;;;;;;16.77;11.07;;;;;;;;;;5053651;28;20052;-60
2022/05/22 03:37:38;;;;;;;20.63;10.07;;;;;;;;;;5049067;28;20080;-59
2022/05/22 03:40:04;;;;;;;13.83;8.63;;;;;;;;;;5056584;28;20061;-59
2022/05/22 03:42:30;;;;;;;20.67;10.80;;;;;;;;;;5056344;28;20056;-59
2022/05/22 03:44:56;;;;;;;21.07;11.70;;;;;;;;;;5064788;28;20045;-59
2022/05/22 03:47:23;;;;;;;17.43;8.03;;;;;;;;;;5064864;28;20044;-59
2022/05/22 03:49:49;;;;;;;17.63;10.10;;;;;;;;;;5066944;28;20044;-59
2022/05/22 03:52:15;;;;;;;17.43;10.27;;;;;;;;;;5054527;28;20041;-59
2022/05/22 03:54:41;;;;;;;11.77;7.20;;;;;;;;;;5059387;28;20059;-59
2022/05/22 03:57:09;;;;;;;31.07;13.30;;;;;;;;;;5057022;28;20037;-59
2022/05/22 03:59:37;;;;;;;17.53;10.63;;;;;;;;;;5049656;28;20063;-59
2022/05/22 04:02:03;;;;;;;19.60;8.27;;;;;;;;;;5054368;28;20037;-60
2022/05/22 04:04:30;;;;;;;13.37;8.70;;;;;;;;;;5049894;28;20044;-59
2022/05/22 04:06:56;;;;;;;29.30;13.80;;;;;;;;;;5058441;28;20533;-60
2022/05/22 04:09:22;;;;;;;17.40;11.17;;;;;;;;;;5062459;28;20049;-59
2022/05/22 04:11:48;;;;;;;14.83;9.50;;;;;;;;;;5057003;28;20588;-59
2022/05/22 04:14:18;;;;;;;16.13;10.17;;;;;;;;;;5063691;28;20073;-59
2022/05/22 04:16:44;;;;;;;20.90;11.67;;;;;;;;;;5057785;28;20048;-59
2022/05/22 04:19:10;;;;;;;14.80;9.00;;;;;;;;;;5056715;28;20513;-59
2022/05/22 04:21:36;;;;;;;11.63;8.20;;;;;;;;;;5056328;28;20538;-59
2022/05/22 04:26:47;;;;;;;17.67;10.07;;;;;;;;;;5057248;28;20136;-60
2022/05/22 04:29:13;;;;;;;17.17;8.57;;;;;;;;;;5058119;28;20064;-59
2022/05/22 04:31:39;;;;;;;20.07;11.30;;;;;;;;;;5061888;28;20036;-60
2022/05/22 04:34:05;;;;;;;13.23;8.53;;;;;;;;;;5065169;28;20047;-59
2022/05/22 04:36:31;;;;;;;17.70;10.40;;;;;;;;;;5056031;28;20107;-59
2022/05/22 04:38:57;;;;;;;15.10;10.37;;;;;;;;;;5056877;28;20060;-59
2022/05/22 04:41:23;;;;;;;15.73;10.80;;;;;;;;;;5051967;28;20068;-60
2022/05/22 04:43:49;;;;;;;29.17;13.37;;;;;;;;;;5059511;28;20433;-59
2022/05/22 04:46:15;;;;;;;18.97;9.93;;;;;;;;;;5057032;28;20427;-59
2022/05/22 04:48:41;;;;;;;17.37;11.33;;;;;;;;;;5056923;28;20041;-59
2022/05/22 04:51:09;;;;;;;14.20;9.30;;;;;;;;;;5062140;28;20036;-60
2022/05/22 04:53:34;;;;;;;25.57;16.17;;;;;;;;;;5056339;28;20097;-60
2022/05/22 04:56:01;;;;;;;22.83;12.97;;;;;;;;;;5055719;28;20044;-59
2022/05/22 04:58:27;;;;;;;31.37;19.47;;;;;;;;;;5056486;28;20043;-59
2022/05/22 05:00:53;;;;;;;33.43;22.53;;;;;;;;;;5059173;28;20064;-60
2022/05/22 05:03:19;;;;;;;25.93;14.53;;;;;;;;;;5057549;28;20041;-59
2022/05/22 05:05:52;;;;;;;27.60;16.17;;;;;;;;;;5057256;28;20365;-60
2022/05/22 05:08:18;;;;;;;;;;;;;;;;;;5059201;28;20136;-60
2022/05/22 05:10:45;;;;;;;35.97;17.40;;;;;;;;;;5050427;28;19964;-60
2022/05/22 05:13:11;;;;;;;40.13;20.17;;;;;;;;;;5060373;28;20490;-60
2022/05/22 05:15:37;;;;;;;37.00;20.63;;;;;;;;;;5064243;28;20044;-60
2022/05/22 05:18:03;;;;;;;43.53;22.60;;;;;;;;;;5054226;28;20308;-60
2022/05/22 05:20:30;;;;;;;35.17;18.20;;;;;;;;;;5049860;28;20051;-60
2022/05/22 05:22:56;;;;;;;32.70;16.97;;;;;;;;;;5049564;28;20044;-60
2022/05/22 05:25:22;;;;;;;32.50;19.43;;;;;;;;;;5053873;28;20513;-60
2022/05/22 05:27:48;;;;;;;29.00;16.77;;;;;;;;;;5050563;28;20040;-59
2022/05/22 05:30:14;;;;;;;30.80;16.63;;;;;;;;;;5053610;28;20764;-60
2022/05/22 05:32:41;;;;;;;34.13;17.00;;;;;;;;;;5057214;28;20163;-60
2022/05/22 05:35:09;;;;;;;26.67;17.53;;;;;;;;;;5056006;28;20120;-60
2022/05/22 05:37:36;;;;;;;40.83;19.77;;;;;;;;;;5054714;28;20534;-60
2022/05/22 05:40:03;;;;;;;30.47;18.23;;;;;;;;;;5057362;28;20064;-60
2022/05/22 05:42:32;;;;;;;27.17;15.73;;;;;;;;;;5061703;28;20163;-60
2022/05/22 05:44:58;;;;;;;24.90;14.67;;;;;;;;;;5056492;28;20053;-60
2022/05/22 05:47:24;;;;;;;27.47;14.77;;;;;;;;;;5061579;28;20041;-60
2022/05/22 05:49:50;;;;;;;25.73;15.53;;;;;;;;;;5050639;28;20461;-60
2022/05/22 05:52:16;;;;;;;36.33;19.10;;;;;;;;;;5052242;28;20554;-60
2022/05/22 05:54:42;;;;;;;26.87;14.27;;;;;;;;;;5058160;28;20146;-59
2022/05/22 05:57:12;;;;;;;28.37;13.70;;;;;;;;;;5054404;28;20044;-60
2022/05/22 05:59:38;;;;;;;30.13;13.90;;;;;;;;;;5055806;28;20056;-60
2022/05/22 06:02:04;;;;;;;30.03;13.50;;;;;;;;;;5055391;28;20040;-59
2022/05/22 06:04:30;;;;;;;23.03;13.03;;;;;;;;;;5053799;28;20040;-60
2022/05/22 06:06:56;;;;;;;28.70;12.60;;;;;;;;;;5053909;28;20044;-60
2022/05/22 06:09:22;;;;;;;22.13;10.77;;;;;;;;;;5055367;28;20779;-59
2022/05/22 06:11:48;;;;;;;28.57;11.33;;;;;;;;;;5057340;28;20033;-59
2022/05/22 06:14:16;;;;;;;28.37;12.87;;;;;;;;;;5056408;28;20044;-59
2022/05/22 06:16:42;;;;;;;23.40;13.73;;;;;;;;;;5055230;28;20989;-60
2022/05/22 06:19:08;;;;;;;29.63;12.30;;;;;;;;;;5047718;28;20037;-60
2022/05/22 06:21:34;;;;;;;23.93;11.67;;;;;;;;;;5049829;28;20787;-60
2022/05/22 06:24:00;;;;;;;24.67;10.47;;;;;;;;;;5053262;28;20075;-59
2022/05/22 06:26:26;;;;;;;18.27;9.47;;;;;;;;;;5053890;28;20060;-60
2022/05/22 06:28:52;;;;;;;29.43;10.03;;;;;;;;;;5051594;28;20045;-59
2022/05/22 06:31:18;;;;;;;18.33;9.57;;;;;;;;;;5050244;28;20048;-59
2022/05/22 06:33:44;;;;;;;20.13;8.27;;;;;;;;;;5057496;28;20570;-59
2022/05/22 06:36:11;;;;;;;20.67;8.70;;;;;;;;;;5062591;28;20503;-59
2022/05/22 06:41:23;;;;;;;17.57;8.87;;;;;;;;;;5067844;28;20067;-59
2022/05/22 06:43:53;;;;;;;24.77;9.77;;;;;;;;;;5049765;28;20073;-59
2022/05/22 06:46:30;;;;;;;23.13;10.03;;;;;;;;;;5047984;28;20041;-59
2022/05/22 06:48:57;;;;;;;23.73;10.13;;;;;;;;;;5049927;28;20758;-59
2022/05/22 06:51:23;;;;;;;20.07;9.17;;;;;;;;;;5053342;28;20495;-59
2022/05/22 06:53:49;;;;;;;25.47;10.50;;;;;;;;;;5064089;28;20157;-59
2022/05/22 06:56:15;;;;;;;21.63;8.90;;;;;;;;;;5050251;28;20142;-59
2022/05/22 06:58:41;;;;;;;29.57;9.00;;;;;;;;;;5055043;28;20048;-59
2022/05/22 07:01:10;;;;;;;23.97;9.20;;;;;;;;;;5060814;28;20037;-59
2022/05/22 07:03:36;;;;;;;18.63;9.43;;;;;;;;;;5066334;28;20669;-59
2022/05/22 07:06:02;;;;;;;20.57;10.20;;;;;;;;;;5049483;28;20499;-59
2022/05/22 07:08:28;;;;;;;21.50;8.77;;;;;;;;;;5053176;28;20037;-59
2022/05/22 07:13:38;;;;;;;21.97;8.47;;;;;;;;;;5060553;28;20048;-59
2022/05/22 07:16:05;;;;;;;19.00;7.87;;;;;;;;;;5061136;28;20047;-59
2022/05/22 07:18:32;;;;;;;16.33;7.20;;;;;;;;;;5066523;28;20105;-59
2022/05/22 07:20:58;;;;;;;23.40;7.40;;;;;;;;;;5052594;28;20095;-59
2022/05/22 07:23:24;;;;;;;15.77;5.43;;;;;;;;;;5050822;28;20033;-59
2022/05/22 07:25:51;;;;;;;12.07;4.87;;;;;;;;;;5058399;28;20072;-59
2022/05/22 07:28:17;;;;;;;15.63;5.47;;;;;;;;;;5059759;28;20098;-60
2022/05/22 07:30:44;;;;;;;17.17;5.47;;;;;;;;;;5034003;28;20048;-59
2022/05/22 07:33:10;;;;;;;11.90;5.43;;;;;;;;;;5051009;28;20041;-60
2022/05/22 07:35:36;;;;;;;15.20;5.43;;;;;;;;;;5053735;28;20052;-60
2022/05/22 07:38:02;;;;;;;15.37;6.03;;;;;;;;;;5051769;28;20056;-60
2022/05/22 07:40:29;;;;;;;15.00;5.20;;;;;;;;;;5050494;28;20057;-59
2022/05/22 07:42:55;;;;;;;16.67;4.23;;;;;;;;;;5050943;28;20067;-59
2022/05/22 07:45:21;;;;;;;12.97;4.33;;;;;;;;;;5051302;28;20480;-60
2022/05/22 07:47:47;;;;;;;12.90;3.80;;;;;;;;;;5064200;28;20040;-59
2022/05/22 07:50:21;;;;;;;11.33;3.90;;;;;;;;;;5052648;28;20044;-60
2022/05/22 07:52:50;;;;;;;13.53;4.07;;;;;;;;;;5050694;28;20045;-60
2022/05/22 07:55:18;;;;;;;14.73;3.07;;;;;;;;;;5049778;28;20037;-60
2022/05/22 07:57:49;;;;;;;9.93;3.10;;;;;;;;;;5056864;28;20044;-60
2022/05/22 08:00:17;;;;;;;9.47;2.50;;;;;;;;;;5067039;28;20056;-59
2022/05/22 08:02:43;;;;;;;9.53;2.40;;;;;;;;;;5065652;28;20123;-59
2022/05/22 08:05:10;;;;;;;10.90;2.80;;;;;;;;;;5062797;28;20080;-60
2022/05/22 08:07:36;;;;;;;8.87;2.70;;;;;;;;;;5068638;28;20123;-60
2022/05/22 08:10:03;;;;;;;6.40;2.73;;;;;;;;;;5050635;28;20069;-60
2022/05/22 08:12:29;;;;;;;6.17;2.00;;;;;;;;;;5056347;28;20040;-60
2022/05/22 08:14:55;;;;;;;15.47;2.73;;;;;;;;;;5059359;28;20525;-60
2022/05/22 08:17:21;;;;;;;13.10;3.07;;;;;;;;;;5056902;28;20048;-60
2022/05/22 08:19:51;;;;;;;10.10;3.27;;;;;;;;;;5055532;28;20048;-60
2022/05/22 08:22:18;;;;;;;8.33;2.53;;;;;;;;;;5050239;28;20049;-60
2022/05/22 08:24:44;;;;;;;8.50;2.97;;;;;;;;;;5053673;28;20067;-59
2022/05/22 08:27:10;;;;;;;8.87;2.63;;;;;;;;;;5053414;28;20052;-59
2022/05/22 08:29:36;;;;;;;11.37;3.60;;;;;;;;;;5051937;28;20077;-59
2022/05/22 08:32:02;;;;;;;9.67;2.33;;;;;;;;;;5056936;28;20079;-60
2022/05/22 08:34:28;;;;;;;14.70;2.30;;;;;;;;;;5049877;28;20128;-60
2022/05/22 08:36:54;;;;;;;8.23;2.70;;;;;;;;;;5060008;28;20128;-60
2022/05/22 08:39:20;;;;;;;11.97;2.43;;;;;;;;;;5052109;28;20507;-60
2022/05/22 08:41:51;;;;;;;11.17;3.10;;;;;;;;;;5052416;28;20701;-60
2022/05/22 08:44:17;;;;;;;7.43;2.50;;;;;;;;;;5051825;28;20110;-60
2022/05/22 08:47:03;;;;;;;8.00;2.77;;;;;;;;;;5055388;28;20495;-60
2022/05/22 08:49:35;;;;;;;12.63;2.77;;;;;;;;;;5062767;28;20059;-59
2022/05/22 08:52:04;;;;;;;12.05;2.65;;;;;;;;;;5062432;28;20044;-60
2022/05/22 08:54:35;;;;;;;9.20;2.27;;;;;;;;;;5065191;28;20052;-60
2022/05/22 08:59:49;;;;;;;11.20;2.77;;;;;;;;;;5051702;28;20040;-59
2022/05/22 09:02:24;;;;;;;12.60;2.33;;;;;;;;;;5049067;28;20037;-59
2022/05/22 09:04:52;;;;;;;9.33;2.70;;;;;;;;;;5058000;28;20049;-60
2022/05/22 09:07:30;;;;;;;6.13;1.90;;;;;;;;;;5065911;28;20477;-60
2022/05/22 09:10:17;;;;;;;8.53;2.03;;;;;;;;;;5051675;28;20051;-60
2022/05/22 09:12:43;;;;;;;9.30;2.30;;;;;;;;;;5061388;28;20055;-60
2022/05/22 09:15:19;;;;;;;8.53;2.70;;;;;;;;;;5057150;28;20475;-60
2022/05/22 09:17:54;;;;;;;9.53;2.63;;;;;;;;;;5060709;28;20067;-59
2022/05/22 09:20:22;;;;;;;8.27;2.40;;;;;;;;;;5058870;28;20119;-60
2022/05/22 09:22:48;;;;;;;7.10;2.63;;;;;;;;;;5051679;28;20525;-60
2022/05/22 09:25:17;;;;;;;6.93;1.77;;;;;;;;;;5064834;28;20045;-60
2022/05/22 09:27:59;;;;;;;6.87;2.10;;;;;;;;;;5052984;28;20132;-60
2022/05/22 09:30:25;;;;;;;9.03;2.60;;;;;;;;;;5061263;28;20075;-60
2022/05/22 09:33:10;;;;;;;10.13;2.63;;;;;;;;;;5047557;28;20065;-60
2022/05/22 09:35:59;;;;;;;11.70;2.67;;;;;;;;;;5049375;28;20076;-60
2022/05/22 09:38:25;;;;;;;7.57;2.58;;;;;;;;;;5049556;28;20041;-60
2022/05/22 09:40:56;;;;;;;9.30;2.55;;;;;;;;;;5062968;28;20048;-61
2022/05/22 09:43:22;;;;;;;6.53;2.50;;;;;;;;;;5051089;28;20040;-60
2022/05/22 09:45:48;;;;;;;7.95;2.25;;;;;;;;;;5057718;28;20052;-60
2022/05/22 09:48:37;;;;;;;6.78;2.30;;;;;;;;;;5054879;28;20045;-60
2022/05/22 09:51:17;;;;;;;7.05;2.08;;;;;;;;;;5053892;28;20055;-60
2022/05/22 09:53:54;;;;;;;8.32;2.05;;;;;;;;;;5048097;28;20141;-60
2022/05/22 09:56:29;;;;;;;9.07;2.22;;;;;;;;;;5048106;28;20410;-60
2022/05/22 09:58:58;;;;;;;10.63;2.25;;;;;;;;;;5047896;28;20128;-60
2022/05/22 10:01:28;;;;;;;7.25;2.42;;;;;;;;;;5057310;28;20052;-60
2022/05/22 10:04:03;;;;;;;7.80;2.10;;;;;;;;;;5054731;28;20040;-60
2022/05/22 10:06:39;;;;;;;10.75;2.30;;;;;;;;;;5049074;28;20060;-61
2022/05/22 10:09:34;;;;;;;8.05;2.47;;;;;;;;;;5056282;28;20088;-60
2022/05/22 10:12:11;;;;;;;5.95;2.30;;;;;;;;;;5047157;28;20170;-60
2022/05/22 10:14:56;;;;;;;7.90;2.22;;;;;;;;;;5047475;28;20409;-60
2022/05/22 10:17:30;;;;;;;5.53;2.00;;;;;;;;;;5048217;28;20045;-60
2022/05/22 10:19:56;;;;;;;7.13;2.15;;;;;;;;;;5048219;28;20041;-60
2022/05/22 10:22:42;;;;;;;8.20;2.28;;;;;;;;;;5056084;28;20037;-60
2022/05/22 10:25:21;;;;;;;9.52;2.50;;;;;;;;;;5055678;28;20056;-60
2022/05/22 10:27:50;;;;;;;7.70;2.10;;;;;;;;;;5047854;28;20087;-61
2022/05/22 10:30:22;;;;;;;8.80;2.45;;;;;;;;;;5056080;28;20134;-61
2022/05/22 10:32:54;;;;;;;5.03;1.95;;;;;;;;;;5051769;28;20041;-60
2022/05/22 10:35:24;;;;;;;6.47;2.05;;;;;;;;;;5048182;28;20465;-60
2022/05/22 10:37:53;;;;;;;8.73;2.03;;;;;;;;;;5048004;28;20584;-61
2022/05/22 10:40:22;;;;;;;6.60;1.92;;;;;;;;;;5048364;28;20056;-61
2022/05/22 10:42:51;;;;;;;5.85;1.70;;;;;;;;;;5049819;28;20098;-61
2022/05/22 10:45:32;;;;;;;6.18;1.95;;;;;;;;;;5051677;28;20044;-61
2022/05/22 10:48:06;;;;;;;5.70;2.03;;;;;;;;;;5068487;28;20080;-61
2022/05/22 10:50:32;;;;;;;8.80;2.38;;;;;;;;;;5052050;28;20049;-61
2022/05/22 10:52:58;;;;;;;6.97;2.15;;;;;;;;;;5051258;28;20095;-60
2022/05/22 10:55:45;;;;;;;3.55;1.48;;;;;;;;;;5058306;28;20162;-60
2022/05/22 10:58:25;;;;;;;7.60;2.05;;;;;;;;;;5058007;28;20049;-60
2022/05/22 11:00:56;;;;;;;4.88;1.52;;;;;;;;;;5062830;28;20045;-60
2022/05/22 11:03:26;;;;;;;6.00;1.58;;;;;;;;;;5059333;28;20037;-60
2022/05/22 11:05:52;;;;;;;7.05;1.83;;;;;;;;;;5054922;28;20048;-60
2022/05/22 11:08:30;;;;;;;4.13;1.40;;;;;;;;;;5056955;28;20037;-60
2022/05/22 11:10:57;;;;;;;6.30;1.70;;;;;;;;;;5062962;28;20091;-60
2022/05/22 11:13:25;;;;;;;7.28;2.33;;;;;;;;;;5053241;28;20045;-60
2022/05/22 11:15:51;;;;;;;7.07;1.65;;;;;;;;;;5048790;28;20040;-61
2022/05/22 11:18:27;;;;;;;5.50;1.73;;;;;;;;;;5059139;28;20041;-60
2022/05/22 11:21:03;;;;;;;8.02;1.75;;;;;;;;;;5052554;28;20092;-61
2022/05/22 11:23:53;;;;;;;5.70;1.85;;;;;;;;;;5059646;28;20083;-61
2022/05/22 11:26:38;;;;;;;4.68;1.80;;;;;;;;;;5062140;28;20041;-61
2022/05/22 11:29:23;;;;;;;5.47;2.13;;;;;;;;;;5051373;28;20069;-60
2022/05/22 11:32:07;;;;;;;4.90;1.77;;;;;;;;;;5059265;28;20040;-61
2022/05/22 11:34:42;;;;;;;6.28;1.95;;;;;;;;;;5058661;28;20076;-61
2022/05/22 11:37:31;;;;;;;4.60;1.65;;;;;;;;;;5050771;28;20599;-61
2022/05/22 11:40:06;;;;;;;6.93;1.65;;;;;;;;;;5049999;28;20052;-60
2022/05/22 11:42:32;;;;;;;4.82;1.63;;;;;;;;;;5058432;28;20044;-61
2022/05/22 11:45:16;;;;;;;5.25;2.08;;;;;;;;;;5050044;28;20048;-60
2022/05/22 11:47:49;;;;;;;7.43;2.15;;;;;;;;;;5066392;28;20087;-60
2022/05/22 11:50:23;;;;;;;9.23;2.15;;;;;;;;;;5050144;28;20387;-60
2022/05/22 11:53:12;;;;;;;4.90;1.60;;;;;;;;;;5050133;28;20689;-61
2022/05/22 11:55:57;;;;;;;6.22;1.90;;;;;;;;;;5066469;28;20087;-60
2022/05/22 11:58:34;;;;;;;3.95;1.40;;;;;;;;;;5050504;28;20060;-60
2022/05/22 12:01:12;;;;;;;8.02;1.80;;;;;;;;;;5049988;28;20759;-60
2022/05/22 12:03:46;;;;;;;6.57;1.88;;;;;;;;;;5050519;28;20045;-60
2022/05/22 12:06:30;;;;;;;3.95;1.52;;;;;;;;;;5064326;28;20415;-60
2022/05/22 12:09:02;;;;;;;5.47;1.30;;;;;;;;;;5054711;28;20045;-61
2022/05/22 12:11:28;;;;;;;7.32;1.95;;;;;;;;;;5050154;28;20510;-60
2022/05/22 12:14:05;;;;;;;3.97;1.58;;;;;;;;;;5057712;28;20080;-60
2022/05/22 12:16:44;;;;;;;6.18;1.60;;;;;;;;;;5049836;28;20040;-60
2022/05/22 12:19:17;;;;;;;5.40;1.60;;;;;;;;;;5050461;28;20040;-60
2022/05/22 12:21:43;;;;;;;5.80;2.08;;;;;;;;;;5058079;28;20045;-60
2022/05/22 12:24:15;;;;;;;6.43;1.50;;;;;;;;;;5049835;28;20037;-60
2022/05/22 12:26:42;;;;;;;5.50;1.92;;;;;;;;;;5049962;28;20047;-60
2022/05/22 12:29:10;;;;;;;8.55;2.00;;;;;;;;;;5062969;28;20044;-60
2022/05/22 12:31:43;;;;;;;7.35;2.28;;;;;;;;;;5053431;28;20110;-60
2022/05/22 12:34:12;;;;;;;5.03;1.35;;;;;;;;;;5057271;28;20554;-60
2022/05/22 12:36:41;;;;;;;5.53;1.67;;;;;;;;;;5058189;28;20049;-60
2022/05/22 12:39:09;;;;;;;6.63;1.83;;;;;;;;;;5049769;28;20060;-60
2022/05/22 12:41:44;;;;;;;6.88;2.15;;;;;;;;;;5056198;28;20060;-60
2022/05/22 12:44:12;;;;;;;5.60;1.38;;;;;;;;;;5056997;28;20044;-60
2022/05/22 12:46:39;;;;;;;6.10;1.80;;;;;;;;;;5057313;28;20049;-60
2022/05/22 12:49:19;;;;;;;6.30;1.63;;;;;;;;;;5049950;28;20420;-61
2022/05/22 12:51:56;;;;;;;5.60;1.30;;;;;;;;;;5049470;28;20041;-60
2022/05/22 12:54:23;;;;;;;5.40;1.98;;;;;;;;;;5049276;28;20152;-60
2022/05/22 12:56:50;;;;;;;5.72;1.55;;;;;;;;;;5050514;28;20041;-60
2022/05/22 12:59:27;;;;;;;4.18;1.20;;;;;;;;;;5064146;28;20037;-61
2022/05/22 13:01:55;;;;;;;7.70;1.80;;;;;;;;;;5062379;28;20061;-61
2022/05/22 13:04:40;;;;;;;3.83;1.75;;;;;;;;;;5049202;28;20090;-61
2022/05/22 13:07:11;;;;;;;7.25;1.70;;;;;;;;;;5049270;28;20052;-59
2022/05/22 13:09:46;;;;;;;4.78;1.30;;;;;;;;;;5048425;28;20550;-59
2022/05/22 13:12:18;;;;;;;3.20;1.20;;;;;;;;;;5064581;28;20407;-59
2022/05/22 13:14:47;;;;;;;4.65;1.45;;;;;;;;;;5046828;28;20127;-59
2022/05/22 13:17:14;;;;;;;5.43;1.60;;;;;;;;;;5060350;28;20041;-59
2022/05/22 13:19:48;;;;;;;5.82;1.40;;;;;;;;;;5068154;28;20048;-59
2022/05/22 13:22:25;;;;;;;3.97;1.25;;;;;;;;;;5057072;28;20128;-59
2022/05/22 13:24:51;;;;;;;4.07;1.40;;;;;;;;;;5049283;28;20056;-59
2022/05/22 13:27:25;;;;;;;4.93;1.90;;;;;;;;;;5049446;28;20047;-59
2022/05/22 13:29:54;;;;;;;4.47;1.38;;;;;;;;;;5049497;28;20079;-59
2022/05/22 13:32:24;;;;;;;4.13;1.20;;;;;;;;;;5049020;28;20040;-59
2022/05/22 13:34:51;;;;;;;5.65;1.45;;;;;;;;;;5057569;28;20041;-59
2022/05/22 13:37:27;;;;;;;4.72;1.30;;;;;;;;;;5064108;28;20045;-59
2022/05/22 13:39:57;;;;;;;5.80;1.60;;;;;;;;;;5048604;28;20065;-59
2022/05/22 13:42:41;;;;;;;4.28;1.70;;;;;;;;;;5060526;28;20052;-59
2022/05/22 13:45:10;;;;;;;4.15;1.60;;;;;;;;;;5051970;28;20056;-59
2022/05/22 13:47:54;;;;;;;7.68;1.27;;;;;;;;;;5061965;28;20052;-59
2022/05/22 13:53:20;;;;;;;3.90;1.50;;;;;;;;;;5058206;28;20049;-59
2022/05/22 13:55:47;;;;;;;4.35;1.40;;;;;;;;;;5048738;28;20056;-59
2022/05/22 13:58:13;;;;;;;4.85;1.25;;;;;;;;;;5047781;28;20128;-59
2022/05/22 14:00:40;;;;;;;5.15;1.33;;;;;;;;;;5049033;28;20556;-59
2022/05/22 14:03:16;;;;;;;3.15;0.93;;;;;;;;;;5056362;28;20056;-59
2022/05/22 14:05:44;;;;;;;4.43;1.98;;;;;;;;;;5056389;28;20056;-59
2022/05/22 14:08:18;;;;;;;5.32;1.23;;;;;;;;;;5065733;28;20097;-59
2022/05/22 14:10:44;;;;;;;3.75;1.20;;;;;;;;;;5061129;28;20032;-59
2022/05/22 14:13:29;;;;;;;4.35;1.25;;;;;;;;;;5059148;28;20044;-59
2022/05/22 14:15:59;;;;;;;5.38;1.40;;;;;;;;;;5048085;28;20044;-59
2022/05/22 14:18:28;;;;;;;4.93;1.45;;;;;;;;;;5058213;28;20040;-59
2022/05/22 14:20:56;;;;;;;4.38;1.20;;;;;;;;;;5053922;28;20048;-59
2022/05/22 14:23:33;;;;;;;4.18;1.20;;;;;;;;;;5048216;28;20037;-59
2022/05/22 14:26:01;;;;;;;3.03;1.17;;;;;;;;;;5047116;28;20076;-58
2022/05/22 14:28:38;;;;;;;5.90;1.40;;;;;;;;;;5050015;28;20068;-58
2022/05/22 14:31:12;;;;;;;4.70;1.50;;;;;;;;;;5060632;28;20041;-59
2022/05/22 14:33:38;;;;;;;5.82;1.90;;;;;;;;;;5048175;28;20048;-58
2022/05/22 14:36:13;;;;;;;4.85;1.42;;;;;;;;;;5047359;28;20044;-59
2022/05/22 14:38:40;;;;;;;5.43;1.35;;;;;;;;;;5055510;28;20072;-58
2022/05/22 14:41:09;;;;;;;5.68;1.52;;;;;;;;;;5047529;28;20056;-59
2022/05/22 14:43:43;;;;;;;4.45;1.42;;;;;;;;;;5062264;28;20056;-59
2022/05/22 14:46:14;;;;;;;4.45;1.30;;;;;;;;;;5054799;28;20040;-61
2022/05/22 14:48:43;;;;;;;6.25;1.40;;;;;;;;;;5047313;28;20199;-58
2022/05/22 14:51:31;;;;;;;5.43;1.60;;;;;;;;;;5061882;28;20032;-58
2022/05/22 14:54:06;;;;;;;5.22;1.20;;;;;;;;;;5058967;28;20086;-59
2022/05/22 14:56:33;;;;;;;4.68;1.30;;;;;;;;;;5064906;28;20055;-59
2022/05/22 14:59:01;;;;;;;4.05;1.48;;;;;;;;;;5055921;28;20044;-59
2022/05/22 15:01:34;;;;;;;6.28;1.45;;;;;;;;;;5047729;28;20045;-59
2022/05/22 15:04:02;;;;;;;7.65;2.17;;;;;;;;;;5055539;28;20048;-59
2022/05/22 15:06:29;;;;;;;6.68;1.98;;;;;;;;;;5057646;28;20091;-59
2022/05/22 15:09:05;;;;;;;6.13;2.00;;;;;;;;;;5062816;28;20037;-59
2022/05/22 15:11:40;;;;;;;3.10;1.35;;;;;;;;;;5064667;28;20538;-59